createdAt,value
2018-12-21T00:02:18.287Z,90.63
2018-12-21T00:04:45.893Z,90.00
2018-12-21T00:07:13.511Z,93.27
2018-12-21T00:09:41.423Z,87.60
2018-12-21T00:12:09.030Z,91.70
2018-12-21T00:14:36.634Z,87.87
2018-12-21T00:17:04.507Z,90.10
2018-12-21T00:19:32.109Z,91.77
2018-12-21T00:21:59.707Z,92.63
2018-12-21T00:24:27.343Z,95.37
2018-12-21T00:26:54.956Z,86.23
2018-12-21T00:29:22.557Z,90.53
2018-12-21T00:31:55.895Z,84.53
2018-12-21T00:34:29.134Z,86.73
2018-12-21T00:37:02.398Z,88.20
2018-12-21T00:39:35.620Z,86.30
2018-12-21T00:42:02.791Z,84.77
2018-12-21T00:44:32.423Z,90.93
2018-12-21T00:47:02.066Z,87.70
2018-12-21T00:49:29.663Z,76.77
2018-12-21T00:51:57.274Z,87.30
2018-12-21T00:54:24.915Z,81.77
2018-12-21T00:56:52.571Z,91.03
2018-12-21T00:59:20.219Z,82.20
2018-12-21T01:01:47.879Z,81.73
2018-12-21T01:04:15.486Z,79.10
2018-12-21T01:06:43.101Z,86.90
2018-12-21T01:09:10.733Z,83.97
2018-12-21T01:11:38.337Z,75.27
2018-12-21T01:14:05.951Z,79.40
2018-12-21T01:16:33.587Z,81.00
2018-12-21T01:19:01.195Z,72.10
2018-12-21T01:21:29.932Z,78.37
2018-12-21T01:23:57.558Z,80.67
2018-12-21T01:26:25.158Z,74.13
2018-12-21T01:28:52.771Z,73.77
2018-12-21T01:31:20.389Z,79.97
2018-12-21T01:33:47.998Z,72.93
2018-12-21T01:36:15.602Z,71.87
2018-12-21T01:38:43.856Z,75.13
2018-12-21T01:41:11.500Z,65.83
2018-12-21T01:43:39.114Z,67.07
2018-12-21T01:46:06.752Z,62.43
2018-12-21T01:48:34.369Z,69.67
2018-12-21T01:51:01.997Z,65.60
2018-12-21T01:53:29.648Z,68.33
2018-12-21T01:55:57.276Z,64.43
2018-12-21T01:58:24.884Z,67.00
2018-12-21T02:00:52.651Z,61.73
2018-12-21T02:03:20.260Z,63.17
2018-12-21T02:05:47.857Z,58.03
2018-12-21T02:08:15.488Z,62.80
2018-12-21T02:10:43.091Z,68.47
2018-12-21T02:13:10.708Z,61.13
2018-12-21T02:15:38.594Z,62.53
2018-12-21T02:18:06.315Z,65.60
2018-12-21T02:20:33.933Z,56.93
2018-12-21T02:23:01.567Z,61.17
2018-12-21T02:25:29.762Z,63.73
2018-12-21T02:27:58.304Z,60.70
2018-12-21T02:30:26.630Z,60.27
2018-12-21T02:32:54.262Z,58.37
2018-12-21T02:35:21.872Z,54.30
2018-12-21T02:37:49.825Z,54.97
2018-12-21T02:40:17.433Z,55.50
2018-12-21T02:42:45.049Z,57.80
2018-12-21T02:45:13.793Z,56.77
2018-12-21T02:47:41.484Z,55.10
2018-12-21T02:50:09.122Z,55.50
2018-12-21T02:52:36.768Z,51.57
2018-12-21T02:55:04.376Z,58.00
2018-12-21T02:57:32.001Z,55.33
2018-12-21T02:59:59.639Z,53.03
2018-12-21T03:02:27.267Z,50.50
2018-12-21T03:04:54.867Z,51.53
2018-12-21T03:07:22.592Z,51.03
2018-12-21T03:09:50.225Z,53.77
2018-12-21T03:12:17.852Z,48.53
2018-12-21T03:14:45.450Z,46.63
2018-12-21T03:17:13.233Z,49.37
2018-12-21T03:19:41.010Z,46.80
2018-12-21T03:22:14.607Z,45.23
2018-12-21T03:24:38.290Z,44.37
2018-12-21T03:27:05.919Z,46.57
2018-12-21T03:29:33.573Z,49.43
2018-12-21T03:32:01.209Z,43.93
2018-12-21T03:34:28.979Z,46.07
2018-12-21T03:36:56.668Z,48.63
2018-12-21T03:39:24.297Z,48.40
2018-12-21T03:41:51.903Z,39.47
2018-12-21T03:44:19.501Z,41.97
2018-12-21T03:46:47.150Z,41.23
2018-12-21T03:49:14.798Z,44.80
2018-12-21T03:51:42.495Z,43.63
2018-12-21T03:54:10.128Z,40.57
2018-12-21T03:56:37.748Z,38.60
2018-12-21T03:59:05.343Z,44.17
2018-12-21T04:01:32.970Z,43.10
2018-12-21T04:04:00.575Z,40.07
2018-12-21T04:06:28.185Z,39.67
2018-12-21T04:08:55.825Z,39.43
2018-12-21T04:11:23.432Z,39.47
2018-12-21T04:13:51.039Z,38.80
2018-12-21T04:16:18.667Z,38.60
2018-12-21T04:18:46.266Z,37.97
2018-12-21T04:21:13.872Z,31.60
2018-12-21T04:23:41.661Z,36.00
2018-12-21T04:26:09.258Z,35.03
2018-12-21T04:28:36.864Z,34.40
2018-12-21T04:31:04.482Z,35.83
2018-12-21T04:33:32.096Z,36.93
2018-12-21T04:35:59.701Z,35.57
2018-12-21T04:38:27.620Z,33.50
2018-12-21T04:40:55.232Z,34.03
2018-12-21T04:43:22.845Z,30.80
2018-12-21T04:45:50.479Z,33.07
2018-12-21T04:48:18.092Z,32.23
2018-12-21T04:50:45.714Z,36.07
2018-12-21T04:53:13.352Z,35.07
2018-12-21T04:55:40.953Z,31.50
2018-12-21T04:58:08.568Z,30.00
2018-12-21T05:00:36.207Z,35.20
2018-12-21T05:03:03.812Z,33.03
2018-12-21T05:05:31.413Z,33.73
2018-12-21T05:07:59.060Z,35.00
2018-12-21T05:10:26.671Z,36.37
2018-12-21T05:12:54.281Z,37.97
2018-12-21T05:15:21.916Z,32.00
2018-12-21T05:17:49.520Z,34.13
2018-12-21T05:20:17.115Z,30.90
2018-12-21T05:22:52.290Z,35.50
2018-12-21T05:25:14.391Z,35.00
2018-12-21T05:27:42.058Z,36.77
2018-12-21T05:30:09.659Z,36.13
2018-12-21T05:32:37.269Z,32.63
2018-12-21T05:35:04.948Z,35.27
2018-12-21T05:37:32.554Z,33.97
2018-12-21T05:40:00.167Z,36.33
2018-12-21T05:42:27.795Z,39.83
2018-12-21T05:44:55.406Z,34.63
2018-12-21T05:47:23.001Z,34.27
2018-12-21T05:49:50.633Z,35.50
2018-12-21T05:52:18.283Z,36.27
2018-12-21T05:54:45.891Z,36.83
2018-12-21T05:57:13.512Z,36.00
2018-12-21T05:59:41.112Z,36.10
2018-12-21T06:02:08.832Z,38.07
2018-12-21T06:04:36.572Z,38.20
2018-12-21T06:07:04.181Z,34.83
2018-12-21T06:09:31.784Z,36.93
2018-12-21T06:11:59.675Z,40.40
2018-12-21T06:14:27.277Z,37.37
2018-12-21T06:16:54.882Z,37.67
2018-12-21T06:19:22.518Z,37.93
2018-12-21T06:21:50.130Z,39.90
2018-12-21T06:31:03.080Z,34.03
2018-12-21T06:33:30.680Z,38.93
2018-12-21T06:35:58.406Z,38.33
2018-12-21T06:38:26.044Z,38.23
2018-12-21T06:40:53.673Z,40.23
2018-12-21T06:43:21.284Z,41.23
2018-12-21T06:45:48.921Z,38.17
2018-12-21T06:48:16.530Z,39.80
2018-12-21T06:50:44.225Z,43.37
2018-12-21T06:53:17.952Z,40.23
2018-12-21T06:55:41.499Z,41.47
2018-12-21T06:58:09.101Z,43.57
2018-12-21T07:00:38.225Z,43.93
2018-12-21T07:03:05.875Z,43.97
2018-12-21T07:05:33.598Z,43.93
2018-12-21T07:08:03.785Z,43.67
2018-12-21T07:10:32.764Z,40.37
2018-12-21T07:13:01.710Z,40.50
2018-12-21T07:15:29.966Z,37.53
2018-12-21T07:17:57.688Z,35.30
2018-12-21T07:20:26.440Z,40.87
2018-12-21T07:22:54.061Z,37.40
2018-12-21T07:25:21.894Z,38.67
2018-12-21T07:27:50.023Z,35.17
2018-12-21T07:30:17.623Z,33.17
2018-12-21T07:32:45.390Z,31.07
2018-12-21T07:35:13.000Z,37.23
2018-12-21T07:37:40.591Z,41.40
2018-12-21T07:40:09.193Z,35.27
2018-12-21T07:42:36.823Z,39.80
2018-12-21T07:45:06.398Z,32.90
2018-12-21T07:47:34.044Z,35.60
2018-12-21T07:50:01.664Z,37.03
2018-12-21T07:52:29.286Z,41.60
2018-12-21T07:54:56.915Z,35.67
2018-12-21T07:57:24.519Z,34.47
2018-12-21T07:59:52.120Z,37.60
2018-12-21T08:02:19.756Z,28.67
2018-12-21T08:04:47.357Z,39.57
2018-12-21T08:07:14.964Z,39.03
2018-12-21T08:09:42.646Z,34.77
2018-12-21T08:12:10.245Z,29.97
2018-12-21T08:14:37.852Z,25.80
2018-12-21T08:17:05.492Z,34.47
2018-12-21T08:19:33.111Z,31.20
2018-12-21T08:22:00.714Z,31.67
2018-12-21T08:24:28.345Z,35.60
2018-12-21T08:26:55.967Z,28.10
2018-12-21T08:29:23.808Z,27.37
2018-12-21T08:31:51.441Z,27.17
2018-12-21T08:34:19.054Z,32.90
2018-12-21T08:36:46.667Z,30.67
2018-12-21T08:39:14.305Z,27.07
2018-12-21T08:41:42.062Z,26.80
2018-12-21T08:44:09.676Z,31.97
2018-12-21T08:46:37.313Z,32.93
2018-12-21T08:49:04.922Z,35.87
2018-12-21T08:51:32.645Z,32.53
2018-12-21T08:54:00.279Z,29.70
2018-12-21T08:56:27.884Z,33.87
2018-12-21T08:58:55.491Z,28.60
2018-12-21T09:01:23.147Z,32.33
2018-12-21T09:03:50.761Z,27.23
2018-12-21T09:06:18.817Z,24.53
2018-12-21T09:08:46.759Z,28.50
2018-12-21T09:11:14.406Z,31.53
2018-12-21T09:13:42.008Z,28.33
2018-12-21T09:16:09.906Z,30.00
2018-12-21T09:18:37.540Z,31.33
2018-12-21T09:21:05.341Z,27.43
2018-12-21T09:23:32.966Z,25.67
2018-12-21T09:26:00.582Z,27.43
2018-12-21T09:28:28.194Z,24.17
2018-12-21T09:30:55.815Z,26.30
2018-12-21T09:33:23.434Z,27.23
2018-12-21T09:35:51.048Z,23.57
2018-12-21T09:38:18.679Z,25.50
2018-12-21T09:40:46.293Z,32.17
2018-12-21T09:43:13.995Z,61.87
2018-12-21T09:45:41.658Z,66.23
2018-12-21T09:48:09.267Z,42.37
2018-12-21T09:50:36.904Z,42.47
2018-12-21T09:53:04.536Z,29.30
2018-12-21T09:55:32.159Z,33.70
2018-12-21T09:57:59.766Z,32.53
2018-12-21T10:00:27.410Z,36.00
2018-12-21T10:02:55.015Z,41.90
2018-12-21T10:05:22.616Z,35.83
2018-12-21T10:07:50.266Z,30.03
2018-12-21T10:10:17.873Z,38.60
2018-12-21T10:12:45.534Z,161.40
2018-12-21T10:15:14.004Z,37.77
2018-12-21T10:17:41.623Z,33.63
2018-12-21T10:20:09.236Z,33.43
2018-12-21T10:22:36.870Z,32.93
2018-12-21T10:25:05.443Z,92.20
2018-12-21T10:27:33.041Z,90.60
2018-12-21T10:30:00.676Z,138.70
2018-12-21T10:32:28.287Z,162.33
2018-12-21T10:34:55.901Z,178.90
2018-12-21T10:37:23.558Z,175.60
2018-12-21T10:39:51.170Z,177.20
2018-12-21T10:42:18.774Z,173.80
2018-12-21T10:44:46.405Z,171.90
2018-12-21T10:47:14.010Z,159.30
2018-12-21T10:49:41.619Z,160.23
2018-12-21T10:52:09.272Z,159.03
2018-12-21T10:54:36.873Z,165.93
2018-12-21T11:03:49.927Z,35.03
2018-12-21T11:06:17.545Z,31.40
2018-12-21T11:08:45.169Z,36.20
2018-12-21T11:11:12.808Z,36.63
2018-12-21T11:13:40.471Z,36.33
2018-12-21T11:16:08.130Z,52.53
2018-12-21T11:18:35.763Z,72.80
2018-12-21T11:21:03.398Z,109.73
2018-12-21T11:23:31.021Z,106.43
2018-12-21T11:25:59.014Z,127.73
2018-12-21T11:28:26.629Z,78.07
2018-12-21T11:30:54.354Z,102.77
2018-12-21T11:33:22.024Z,123.53
2018-12-21T11:35:49.636Z,166.87
2018-12-21T11:38:17.247Z,122.40
2018-12-21T11:40:44.899Z,137.97
2018-12-21T11:43:12.490Z,162.80
2018-12-21T11:45:40.099Z,166.80
2018-12-21T11:48:07.741Z,127.93
2018-12-21T11:50:35.348Z,168.30
2018-12-21T11:53:02.951Z,168.17
2018-12-21T11:55:30.594Z,163.37
2018-12-21T11:57:58.195Z,128.20
2018-12-21T12:00:25.805Z,56.10
2018-12-21T12:02:53.443Z,71.83
2018-12-21T12:05:21.071Z,70.83
2018-12-21T12:07:48.681Z,159.67
2018-12-21T12:10:17.195Z,96.70
2018-12-21T12:12:44.822Z,75.27
2018-12-21T12:15:12.569Z,104.20
2018-12-21T12:17:40.259Z,134.00
2018-12-21T12:20:07.878Z,91.33
2018-12-21T12:22:35.498Z,76.03
2018-12-21T12:25:03.690Z,57.37
2018-12-21T12:27:31.316Z,74.57
2018-12-21T12:29:58.927Z,92.43
2018-12-21T12:32:26.570Z,125.33
2018-12-21T12:34:54.190Z,104.60
2018-12-21T12:37:21.800Z,77.47
2018-12-21T12:39:49.430Z,181.83
2018-12-21T12:42:17.054Z,173.23
2018-12-21T12:44:44.672Z,183.13
2018-12-21T12:47:12.327Z,117.20
2018-12-21T12:49:39.933Z,121.20
2018-12-21T12:52:07.545Z,97.63
2018-12-21T12:54:35.209Z,187.60
2018-12-21T12:57:02.822Z,160.53
2018-12-21T12:59:30.444Z,127.13
2018-12-21T13:01:58.557Z,102.87
2018-12-21T13:04:26.224Z,145.87
2018-12-21T13:06:53.841Z,154.20
2018-12-21T13:09:21.477Z,125.50
2018-12-21T13:11:49.086Z,105.33
2018-12-21T13:14:16.763Z,99.30
2018-12-21T13:16:44.475Z,104.67
2018-12-21T13:19:12.089Z,92.87
2018-12-21T13:21:39.707Z,108.47
2018-12-21T13:24:07.341Z,156.63
2018-12-21T13:26:34.959Z,152.90
2018-12-21T13:29:02.583Z,113.37
2018-12-21T13:31:30.222Z,133.90
2018-12-21T13:33:57.840Z,131.03
2018-12-21T13:36:25.457Z,125.10
2018-12-21T13:38:53.191Z,132.40
2018-12-21T13:41:20.806Z,175.67
2018-12-21T13:43:48.422Z,175.37
2018-12-21T13:46:16.046Z,180.00
2018-12-21T13:48:43.670Z,145.43
2018-12-21T13:51:11.280Z,133.90
2018-12-21T13:53:38.920Z,176.80
2018-12-21T13:56:06.535Z,175.83
2018-12-21T13:58:34.157Z,174.33
2018-12-21T14:01:01.800Z,175.03
2018-12-21T14:03:29.408Z,156.67
2018-12-21T14:05:57.025Z,178.73
2018-12-21T14:08:24.700Z,148.30
2018-12-21T14:10:52.401Z,92.33
2018-12-21T14:13:20.024Z,182.40
2018-12-21T14:15:47.716Z,167.23
2018-12-21T14:18:15.328Z,188.40
2018-12-21T14:20:42.966Z,176.57
2018-12-21T14:23:10.610Z,180.57
2018-12-21T14:25:38.233Z,178.67
2018-12-21T14:28:05.865Z,173.83
2018-12-21T14:30:33.511Z,147.00
2018-12-21T14:33:01.122Z,141.97
2018-12-21T14:35:28.748Z,262.53
2018-12-21T14:37:56.447Z,189.70
2018-12-21T14:40:24.068Z,176.67
2018-12-21T14:42:51.719Z,175.67
2018-12-21T14:45:19.435Z,180.30
2018-12-21T14:47:47.040Z,180.10
2018-12-21T14:50:14.660Z,176.10
2018-12-21T14:52:42.564Z,177.37
2018-12-21T14:55:10.172Z,176.37
2018-12-21T14:57:37.789Z,172.67
2018-12-21T15:00:09.661Z,128.83
2018-12-21T15:02:37.288Z,172.73
2018-12-21T15:05:06.968Z,188.00
2018-12-21T15:07:34.575Z,171.03
2018-12-21T15:10:02.295Z,181.97
2018-12-21T15:12:29.927Z,169.03
2018-12-21T15:14:57.526Z,175.23
2018-12-21T15:17:25.149Z,188.40
2018-12-21T15:19:52.789Z,187.63
2018-12-21T15:22:20.401Z,170.80
2018-12-21T15:24:48.770Z,173.10
2018-12-21T15:27:16.509Z,177.83
2018-12-21T15:29:44.130Z,173.03
2018-12-21T15:32:11.797Z,174.83
2018-12-21T15:34:39.445Z,198.97
2018-12-21T15:37:07.064Z,169.30
2018-12-21T15:39:34.688Z,178.53
2018-12-21T15:42:02.593Z,172.47
2018-12-21T15:44:30.282Z,178.80
2018-12-21T15:46:57.884Z,177.43
2018-12-21T15:49:25.612Z,186.53
2018-12-21T15:51:53.287Z,196.03
2018-12-21T15:54:20.892Z,172.83
2018-12-21T15:56:48.534Z,170.70
2018-12-21T15:59:16.143Z,171.77
2018-12-21T16:01:43.747Z,196.07
2018-12-21T16:04:11.391Z,182.00
2018-12-21T16:06:39.006Z,162.87
2018-12-21T16:09:06.947Z,179.20
2018-12-21T16:11:34.630Z,187.47
2018-12-21T16:14:02.475Z,180.37
2018-12-21T16:16:30.083Z,168.00
2018-12-21T16:18:57.732Z,190.80
2018-12-21T16:21:25.443Z,176.97
2018-12-21T16:23:53.237Z,178.13
2018-12-21T16:26:20.868Z,183.70
2018-12-21T16:28:48.487Z,180.90
2018-12-21T16:31:16.108Z,144.97
2018-12-21T16:33:43.745Z,182.77
2018-12-21T16:36:11.573Z,181.17
2018-12-21T16:38:39.306Z,182.43
2018-12-21T16:41:07.215Z,184.20
2018-12-21T16:43:34.967Z,193.13
2018-12-21T16:46:02.776Z,185.17
2018-12-21T16:48:30.547Z,187.13
2018-12-21T16:50:58.245Z,184.00
2018-12-21T16:53:25.851Z,174.97
2018-12-21T16:55:53.794Z,183.83
2018-12-21T16:58:21.409Z,186.97
2018-12-21T17:00:49.033Z,181.83
2018-12-21T17:03:16.755Z,187.50
2018-12-21T17:05:44.371Z,184.83
2018-12-21T17:08:12.074Z,179.93
2018-12-21T17:10:39.716Z,182.40
2018-12-21T17:13:07.339Z,184.30
2018-12-21T17:15:34.955Z,169.87
2018-12-21T17:18:02.654Z,176.20
2018-12-21T17:20:30.287Z,175.20
2018-12-21T17:22:57.891Z,173.07
2018-12-21T17:25:25.526Z,180.40
2018-12-21T17:27:53.126Z,189.00
2018-12-21T17:30:20.727Z,182.00
2018-12-21T17:32:48.362Z,208.67
2018-12-21T17:35:16.328Z,187.87
2018-12-21T17:37:43.927Z,180.73
2018-12-21T17:40:11.564Z,174.37
2018-12-21T17:42:39.342Z,166.27
2018-12-21T17:45:07.903Z,178.67
2018-12-21T17:47:35.880Z,165.43
2018-12-21T17:50:06.361Z,156.70
2018-12-21T17:52:33.963Z,168.77
2018-12-21T17:55:01.571Z,161.47
2018-12-21T17:57:29.457Z,163.77
2018-12-21T17:59:57.241Z,177.43
2018-12-21T18:02:25.105Z,172.03
2018-12-21T18:04:52.725Z,175.30
2018-12-21T18:07:20.349Z,163.00
2018-12-21T18:09:47.956Z,167.97
2018-12-21T18:12:15.670Z,165.33
2018-12-21T18:14:43.305Z,163.67
2018-12-21T18:17:10.932Z,169.97
2018-12-21T18:19:38.577Z,165.73
2018-12-21T18:22:06.722Z,168.13
2018-12-21T18:24:34.343Z,174.80
2018-12-21T18:27:01.962Z,173.93
2018-12-21T18:29:30.406Z,186.83
2018-12-21T18:31:58.160Z,174.50
2018-12-21T18:34:28.902Z,178.20
2018-12-21T18:36:56.626Z,157.40
2018-12-21T18:39:24.260Z,171.97
2018-12-21T18:41:51.894Z,174.30
2018-12-21T18:44:19.503Z,108.83
2018-12-21T18:46:47.103Z,59.27
2018-12-21T18:49:14.729Z,47.07
2018-12-21T18:51:42.350Z,146.67
2018-12-21T18:54:10.045Z,179.23
2018-12-21T18:56:47.180Z,183.53
2018-12-21T18:59:11.394Z,178.23
2018-12-21T19:01:38.997Z,178.63
2018-12-21T19:04:06.861Z,176.43
2018-12-21T19:06:34.778Z,179.43
2018-12-21T19:09:02.611Z,171.10
2018-12-21T19:11:30.221Z,176.87
2018-12-21T19:13:57.832Z,180.77
2018-12-21T19:16:25.527Z,173.90
2018-12-21T19:18:53.204Z,177.10
2018-12-21T19:21:20.806Z,178.80
2018-12-21T19:23:48.728Z,179.67
2018-12-21T19:26:16.330Z,175.53
2018-12-21T19:28:43.928Z,179.03
2018-12-21T19:31:11.571Z,174.97
2018-12-21T19:33:39.184Z,173.43
2018-12-21T19:36:06.820Z,175.90
2018-12-21T19:38:34.469Z,183.50
2018-12-21T19:41:02.969Z,180.37
2018-12-21T19:43:30.590Z,174.40
2018-12-21T19:45:58.223Z,188.27
2018-12-21T19:48:25.832Z,199.83
2018-12-21T19:50:53.446Z,177.57
2018-12-21T19:53:21.084Z,178.37
2018-12-21T19:55:49.965Z,188.23
2018-12-21T19:58:17.580Z,178.70
2018-12-21T20:00:45.212Z,183.20
2018-12-21T20:03:13.512Z,184.60
2018-12-21T20:05:41.138Z,175.17
2018-12-21T20:08:08.783Z,179.73
2018-12-21T20:10:36.395Z,186.57
2018-12-21T20:13:04.008Z,182.77
2018-12-21T20:15:31.643Z,179.50
2018-12-21T20:17:59.250Z,177.70
2018-12-21T20:20:26.860Z,176.97
2018-12-21T20:22:54.626Z,177.80
2018-12-21T20:25:22.240Z,173.07
2018-12-21T20:27:50.515Z,171.63
2018-12-21T20:30:18.461Z,168.43
2018-12-21T20:32:46.169Z,182.47
2018-12-21T20:35:13.909Z,170.57
2018-12-21T20:37:41.551Z,171.90
2018-12-21T20:40:11.442Z,174.33
2018-12-21T20:42:40.623Z,175.50
2018-12-21T20:45:10.687Z,166.97
2018-12-21T20:47:38.342Z,178.90
2018-12-21T20:50:11.336Z,170.03
2018-12-21T20:52:40.505Z,171.47
2018-12-21T20:55:10.781Z,170.27
2018-12-21T20:57:41.177Z,159.63
2018-12-21T21:00:12.897Z,174.07
2018-12-21T21:02:41.382Z,159.50
2018-12-21T21:05:08.994Z,170.20
2018-12-21T21:07:37.432Z,159.30
2018-12-21T21:10:10.293Z,157.73
2018-12-21T21:12:37.915Z,161.07
2018-12-21T21:15:12.789Z,175.27
2018-12-21T21:17:40.399Z,158.43
2018-12-21T21:20:13.556Z,161.43
2018-12-21T21:22:42.170Z,160.50
2018-12-21T21:25:09.966Z,169.53
2018-12-21T21:27:37.627Z,159.47
2018-12-21T21:30:09.353Z,166.20
2018-12-21T21:32:36.996Z,162.93
2018-12-21T21:35:05.481Z,170.90
2018-12-21T21:37:33.108Z,166.13
2018-12-21T21:40:02.159Z,165.33
2018-12-21T21:42:30.607Z,166.40
2018-12-21T21:44:58.290Z,170.87
2018-12-21T21:47:25.947Z,168.87
2018-12-21T21:49:54.074Z,170.07
2018-12-21T21:52:23.863Z,171.13
2018-12-21T21:54:51.725Z,167.33
2018-12-21T21:57:19.561Z,170.93
2018-12-21T21:59:47.211Z,168.33
2018-12-21T22:02:14.866Z,167.90
2018-12-21T22:04:42.627Z,168.73
2018-12-21T22:07:10.252Z,164.97
2018-12-21T22:09:37.868Z,179.13
2018-12-21T22:12:05.481Z,166.17
2018-12-21T22:14:33.230Z,167.47
2018-12-21T22:17:00.842Z,164.87
2018-12-21T22:19:28.480Z,170.00
2018-12-21T22:21:56.127Z,172.87
2018-12-21T22:24:23.730Z,166.33
2018-12-21T22:26:51.469Z,175.47
2018-12-21T22:29:19.120Z,170.03
2018-12-21T22:31:46.745Z,178.13
2018-12-21T22:34:15.442Z,183.13
2018-12-21T22:36:43.505Z,172.40
2018-12-21T22:39:11.213Z,181.20
2018-12-21T22:41:38.864Z,176.80
2018-12-21T22:44:06.523Z,173.70
2018-12-21T22:46:34.271Z,170.77
2018-12-21T22:49:01.874Z,179.30
2018-12-21T22:51:29.531Z,174.50
2018-12-21T22:53:57.143Z,157.80
2018-12-21T22:56:24.746Z,159.33
2018-12-21T22:58:52.375Z,158.40
2018-12-21T23:01:20.003Z,164.90
2018-12-21T23:03:47.623Z,169.07
2018-12-21T23:06:15.259Z,149.07
2018-12-21T23:08:42.963Z,168.37
2018-12-21T23:11:10.592Z,137.33
2018-12-21T23:13:38.238Z,167.50
2018-12-21T23:16:05.912Z,158.70
2018-12-21T23:18:33.527Z,132.27
2018-12-21T23:21:01.298Z,140.07
2018-12-21T23:23:28.894Z,136.83
2018-12-21T23:25:56.500Z,125.00
2018-12-21T23:28:24.170Z,132.17
2018-12-21T23:30:51.784Z,152.53
2018-12-21T23:33:19.389Z,139.37
2018-12-21T23:35:47.028Z,159.03
2018-12-21T23:38:14.642Z,143.00
2018-12-21T23:40:42.241Z,148.97
2018-12-21T23:43:09.879Z,163.77
2018-12-21T23:45:37.495Z,153.20
2018-12-21T23:48:06.596Z,150.83
2018-12-21T23:50:35.822Z,147.60
2018-12-21T23:53:03.480Z,164.97
2018-12-21T23:55:31.084Z,162.87
2018-12-21T23:57:58.706Z,163.73
